^^
Grace C. Lehan Memorial Weather Station Historical Data
Daily Summary for September 19, 2021 Units:  Both    English   Metric
Daily Weekly Monthly Yearly
  High: Low: Average:
Temperature: 90.5 °F /  32.5 °C 68.2 °F /  20.1 °C 76.9 °F /  24.9 °C
Dew Point: 74.8 °F /  23.8 °C 59.8 °F /  15.4 °C 67 °F /  19.4 °C
Humidity: 91.7% 47.4% 73%
Wind Speed: 3.4mph /  5.5km/h - 0.4mph /  0.6km/h
Wind Gust: 13mph /  20.9km/h - -
Wind- - WSW
Pressure: 29.80 in /  1009 hPa 29.65 in /  1003.9 hPa -
Precipitation: 0.45 in /  11.43 mm    
 
 
Tabular Data for September 19, 2021
Time Temperature Dew Point Pressure Wind Wind Speed Wind Gust Humidity Rainfall Rate (Hourly) solar
00:00 70.6 °F /  21.4 °C 60 °F /  15.6 °C 29.80in /  1009hPa Calm   1mph /  1.6km/h 69% 0.00in /  0mm 0 W/m2
00:09 70.5 °F /  21.4 °C 60.2 °F /  15.7 °C 29.80in /  1009hPa Calm     69.9% 0.00in /  0mm 0 W/m2
00:14 70.4 °F /  21.3 °C 60.2 °F /  15.7 °C 29.80in /  1009hPa Calm   1mph /  1.6km/h 70% 0.00in /  0mm 0 W/m2
00:18 70.4 °F /  21.3 °C 60.1 °F /  15.6 °C 29.79in /  1008.7hPa Calm   1mph /  1.6km/h 70% 0.00in /  0mm 0 W/m2
00:24 70.3 °F /  21.3 °C 60.1 °F /  15.6 °C 29.79in /  1008.7hPa Calm   1mph /  1.6km/h 70% 0.00in /  0mm 0 W/m2
00:29 70.3 °F /  21.3 °C 60.1 °F /  15.6 °C 29.79in /  1008.7hPa Calm   1mph /  1.6km/h 70% 0.00in /  0mm 0 W/m2
00:34 70.3 °F /  21.3 °C 60 °F /  15.6 °C 29.79in /  1008.7hPa Calm   1mph /  1.6km/h 70% 0.00in /  0mm 0 W/m2
00:39 70.2 °F /  21.2 °C 60 °F /  15.6 °C 29.79in /  1008.7hPa Calm     70% 0.00in /  0mm 0 W/m2
00:44 70.1 °F /  21.2 °C 59.9 °F /  15.5 °C 29.79in /  1008.7hPa Calm     70% 0.00in /  0mm 0 W/m2
00:49 70 °F /  21.1 °C 59.8 °F /  15.4 °C 29.79in /  1008.7hPa Calm     70% 0.00in /  0mm 0 W/m2
00:54 69.9 °F /  21.1 °C 60 °F /  15.6 °C 29.79in /  1008.7hPa Calm     70.8% 0.00in /  0mm 0 W/m2
00:59 69.8 °F /  21 °C 60 °F /  15.6 °C 29.79in /  1008.7hPa SW 0.1mph /  0.2km/h 2mph /  3.2km/h 71% 0.00in /  0mm 0 W/m2
01:04 69.7 °F /  20.9 °C 59.9 °F /  15.5 °C 29.79in /  1008.7hPa Calm   2mph /  3.2km/h 71% 0.00in /  0mm 0 W/m2
01:09 69.7 °F /  20.9 °C 60 °F /  15.6 °C 29.79in /  1008.7hPa Calm     71.4% 0.00in /  0mm 0 W/m2
01:14 69.6 °F /  20.9 °C 60.2 °F /  15.7 °C 29.79in /  1008.7hPa Calm     72% 0.00in /  0mm 0 W/m2
01:19 69.6 °F /  20.9 °C 60.2 °F /  15.7 °C 29.80in /  1009hPa Calm     72% 0.00in /  0mm 0 W/m2
01:24 69.5 °F /  20.8 °C 60.4 °F /  15.8 °C 29.80in /  1009hPa SW 0.1mph /  0.2km/h 3mph /  4.8km/h 72.7% 0.00in /  0mm 0 W/m2
01:29 69.5 °F /  20.8 °C 60.5 °F /  15.8 °C 29.79in /  1008.7hPa Calm   3mph /  4.8km/h 73% 0.00in /  0mm 0 W/m2
01:34 69.5 °F /  20.8 °C 60.5 °F /  15.8 °C 29.79in /  1008.7hPa Calm   3mph /  4.8km/h 73% 0.00in /  0mm 0 W/m2
01:39 69.4 °F /  20.8 °C 60.7 °F /  15.9 °C 29.79in /  1008.7hPa Calm     73.9% 0.00in /  0mm 0 W/m2
01:44 69.4 °F /  20.8 °C 60.8 °F /  16 °C 29.79in /  1008.7hPa Calm     74% 0.00in /  0mm 0 W/m2
01:49 69.4 °F /  20.8 °C 60.8 °F /  16 °C 29.79in /  1008.7hPa Calm     74% 0.00in /  0mm 0 W/m2
01:54 69.4 °F /  20.8 °C 61 °F /  16.1 °C 29.79in /  1008.7hPa Calm     74.5% 0.00in /  0mm 0 W/m2
01:59 69.5 °F /  20.8 °C 60.9 °F /  16.1 °C 29.78in /  1008.4hPa SW 0.3mph /  0.5km/h 5mph /  8km/h 74.3% 0.00in /  0mm 0 W/m2
02:04 69.5 °F /  20.8 °C 60.9 °F /  16.1 °C 29.78in /  1008.4hPa Calm   5mph /  8km/h 74% 0.00in /  0mm 0 W/m2
02:09 69.6 °F /  20.9 °C 61 °F /  16.1 °C 29.78in /  1008.4hPa SW 0.2mph /  0.3km/h 3mph /  4.8km/h 74% 0.00in /  0mm 0 W/m2
02:14 69.7 °F /  20.9 °C 61.1 °F /  16.2 °C 29.78in /  1008.4hPa Calm   3mph /  4.8km/h 74% 0.00in /  0mm 0 W/m2
02:19 69.7 °F /  20.9 °C 61.2 °F /  16.2 °C 29.78in /  1008.4hPa Calm   3mph /  4.8km/h 74.4% 0.00in /  0mm 0 W/m2
02:24 69.6 °F /  20.9 °C 61.3 °F /  16.3 °C 29.78in /  1008.4hPa Calm   3mph /  4.8km/h 75% 0.00in /  0mm 0 W/m2
02:29 69.6 °F /  20.9 °C 61.3 °F /  16.3 °C 29.77in /  1008hPa Calm   3mph /  4.8km/h 75% 0.00in /  0mm 0 W/m2
02:34 69.5 °F /  20.8 °C 61.2 °F /  16.2 °C 29.77in /  1008hPa Calm   3mph /  4.8km/h 75% 0.00in /  0mm 0 W/m2
02:39 69.5 °F /  20.8 °C 61.2 °F /  16.2 °C 29.77in /  1008hPa Calm     75% 0.00in /  0mm 0 W/m2
02:44 69.4 °F /  20.8 °C 61.2 °F /  16.2 °C 29.77in /  1008hPa SW 0.1mph /  0.2km/h 3mph /  4.8km/h 75% 0.00in /  0mm 0 W/m2
02:49 69.5 °F /  20.8 °C 61.3 °F /  16.3 °C 29.76in /  1007.7hPa Calm   3mph /  4.8km/h 75.2% 0.00in /  0mm 0 W/m2
02:54 69.5 °F /  20.8 °C 61.9 °F /  16.6 °C 29.76in /  1007.7hPa Calm   3mph /  4.8km/h 76.9% 0.00in /  0mm 0 W/m2
02:59 69.5 °F /  20.8 °C 62.5 °F /  16.9 °C 29.76in /  1007.7hPa SW 0.1mph /  0.2km/h 4mph /  6.4km/h 78.7% 0.00in /  0mm 0 W/m2
03:04 69.2 °F /  20.7 °C 62.4 °F /  16.9 °C 29.76in /  1007.7hPa Calm   4mph /  6.4km/h 79% 0.00in /  0mm 0 W/m2
03:09 68.9 °F /  20.5 °C 62.5 °F /  16.9 °C 29.76in /  1007.7hPa SW 0.3mph /  0.5km/h 4mph /  6.4km/h 80% 0.00in /  0mm 0 W/m2
03:14 68.7 °F /  20.4 °C 62.6 °F /  17 °C 29.76in /  1007.7hPa SSW 0.2mph /  0.3km/h 5mph /  8km/h 80.9% 0.00in /  0mm 0 W/m2
03:19 68.5 °F /  20.3 °C 62.4 °F /  16.9 °C 29.76in /  1007.7hPa Calm   5mph /  8km/h 81% 0.00in /  0mm 0 W/m2
03:24 68.4 °F /  20.2 °C 62.3 °F /  16.8 °C 29.76in /  1007.7hPa Calm   5mph /  8km/h 81% 0.00in /  0mm 0 W/m2
03:29 68.3 °F /  20.2 °C 62.5 °F /  16.9 °C 29.75in /  1007.3hPa Calm   5mph /  8km/h 81.7% 0.00in /  0mm 0 W/m2
03:34 68.3 °F /  20.2 °C 62.6 °F /  17 °C 29.75in /  1007.3hPa SSW 0.7mph /  1.1km/h 6mph /  9.7km/h 82% 0.00in /  0mm 0 W/m2
03:39 68.2 °F /  20.1 °C 62.5 °F /  16.9 °C 29.75in /  1007.3hPa Calm   6mph /  9.7km/h 81.9% 0.00in /  0mm 0 W/m2
03:44 68.2 °F /  20.1 °C 62.2 °F /  16.8 °C 29.75in /  1007.3hPa SW 0.2mph /  0.3km/h 6mph /  9.7km/h 81% 0.00in /  0mm 0 W/m2
03:49 68.2 °F /  20.1 °C 62.2 °F /  16.8 °C 29.75in /  1007.3hPa SW 0.1mph /  0.2km/h 6mph /  9.7km/h 81% 0.00in /  0mm 0 W/m2
03:54 68.2 °F /  20.1 °C 62.2 °F /  16.8 °C 29.74in /  1007hPa Calm   6mph /  9.7km/h 81% 0.00in /  0mm 0 W/m2
03:59 68.2 °F /  20.1 °C 62 °F /  16.7 °C 29.74in /  1007hPa SW 0.5mph /  0.8km/h 7mph /  11.3km/h 80.5% 0.00in /  0mm 0 W/m2
04:00 68.3 °F /  20.2 °C 62.3 °F /  16.8 °C 29.74in /  1007hPa Calm   7mph /  11.3km/h 81% 0.00in /  0mm 0 W/m2
04:09 68.3 °F /  20.2 °C 61.9 °F /  16.6 °C 29.74in /  1007hPa SW 0.2mph /  0.3km/h 3mph /  4.8km/h 80% 0.00in /  0mm 0 W/m2
04:14 68.4 °F /  20.2 °C 62 °F /  16.7 °C 29.74in /  1007hPa SW 0.1mph /  0.2km/h 3mph /  4.8km/h 80% 0.00in /  0mm 0 W/m2
04:19 68.4 °F /  20.2 °C 62 °F /  16.7 °C 29.74in /  1007hPa Calm   3mph /  4.8km/h 80% 0.00in /  0mm 0 W/m2
04:24 68.4 °F /  20.2 °C 62 °F /  16.7 °C 29.74in /  1007hPa Calm   3mph /  4.8km/h 80% 0.00in /  0mm 0 W/m2
04:29 68.4 °F /  20.2 °C 62 °F /  16.7 °C 29.74in /  1007hPa Calm   3mph /  4.8km/h 80% 0.00in /  0mm 0 W/m2
04:34 68.4 °F /  20.2 °C 62 °F /  16.7 °C 29.74in /  1007hPa Calm   3mph /  4.8km/h 80% 0.00in /  0mm 0 W/m2
04:39 68.4 °F /  20.2 °C 62 °F /  16.7 °C 29.73in /  1006.7hPa Calm     80% 0.00in /  0mm 0 W/m2
04:44 68.4 °F /  20.2 °C 62 °F /  16.7 °C 29.73in /  1006.7hPa Calm   1mph /  1.6km/h 80% 0.00in /  0mm 0 W/m2
04:49 68.3 °F /  20.2 °C 61.9 °F /  16.6 °C 29.73in /  1006.7hPa Calm   1mph /  1.6km/h 80% 0.00in /  0mm 0 W/m2
04:54 68.3 °F /  20.2 °C 61.9 °F /  16.6 °C 29.73in /  1006.7hPa SW 0.2mph /  0.3km/h 4mph /  6.4km/h 80% 0.00in /  0mm 0 W/m2
04:59 68.4 °F /  20.2 °C 62 °F /  16.7 °C 29.73in /  1006.7hPa Calm   4mph /  6.4km/h 80% 0.00in /  0mm 0 W/m2
05:04 68.4 °F /  20.2 °C 62 °F /  16.7 °C 29.72in /  1006.3hPa Calm   4mph /  6.4km/h 80% 0.00in /  0mm 0 W/m2
05:09 68.4 °F /  20.2 °C 62 °F /  16.7 °C 29.73in /  1006.7hPa Calm   2mph /  3.2km/h 80% 0.00in /  0mm 0 W/m2
05:14 68.4 °F /  20.2 °C 62 °F /  16.7 °C 29.73in /  1006.7hPa Calm   2mph /  3.2km/h 80% 0.00in /  0mm 0 W/m2
05:19 68.4 °F /  20.2 °C 61.9 °F /  16.6 °C 29.72in /  1006.3hPa SW 0.1mph /  0.2km/h 3mph /  4.8km/h 79.9% 0.00in /  0mm 0 W/m2
05:24 68.4 °F /  20.2 °C 62 °F /  16.7 °C 29.72in /  1006.3hPa Calm   3mph /  4.8km/h 79.9% 0.00in /  0mm 0 W/m2
05:29 68.4 °F /  20.2 °C 61.7 °F /  16.5 °C 29.72in /  1006.3hPa Calm   3mph /  4.8km/h 79.3% 0.00in /  0mm 7 W/m2
05:34 68.4 °F /  20.2 °C 61.8 °F /  16.6 °C 29.73in /  1006.7hPa Calm   3mph /  4.8km/h 79.5% 0.00in /  0mm 9 W/m2
05:39 68.4 °F /  20.2 °C 61.7 °F /  16.5 °C 29.72in /  1006.3hPa Calm     79% 0.00in /  0mm 11 W/m2
05:44 68.4 °F /  20.2 °C 61.9 °F /  16.6 °C 29.72in /  1006.3hPa Calm     79.8% 0.00in /  0mm 11 W/m2
05:49 68.4 °F /  20.2 °C 61.7 °F /  16.5 °C 29.72in /  1006.3hPa Calm     79.2% 0.00in /  0mm 16 W/m2
05:54 68.4 °F /  20.2 °C 61.7 °F /  16.5 °C 29.72in /  1006.3hPa Calm     79% 0.00in /  0mm 18 W/m2
05:59 68.5 °F /  20.3 °C 61.7 °F /  16.5 °C 29.72in /  1006.3hPa Calm     79% 0.00in /  0mm 18 W/m2
06:04 68.5 °F /  20.3 °C 61.8 °F /  16.6 °C 29.72in /  1006.3hPa Calm     79% 0.00in /  0mm 16 W/m2
06:09 68.6 °F /  20.3 °C 61.8 °F /  16.6 °C 29.72in /  1006.3hPa Calm     78.8% 0.00in /  0mm 16 W/m2
06:14 68.7 °F /  20.4 °C 61.7 °F /  16.5 °C 29.71in /  1006hPa Calm     78.4% 0.00in /  0mm 28 W/m2
06:19 68.7 °F /  20.4 °C 61.8 °F /  16.6 °C 29.71in /  1006hPa Calm     78.5% 0.00in /  0mm 37 W/m2
06:24 68.8 °F /  20.4 °C 62 °F /  16.7 °C 29.71in /  1006hPa Calm     79% 0.00in /  0mm 42 W/m2
06:29 68.8 °F /  20.4 °C 62.2 °F /  16.8 °C 29.71in /  1006hPa Calm   1mph /  1.6km/h 79.3% 0.00in /  0mm 44 W/m2
06:34 68.9 °F /  20.5 °C 62.1 °F /  16.7 °C 29.71in /  1006hPa Calm   1mph /  1.6km/h 79% 0.00in /  0mm 42 W/m2
06:39 68.9 °F /  20.5 °C 62.2 °F /  16.8 °C 29.71in /  1006hPa SW 0.1mph /  0.2km/h 1mph /  1.6km/h 79% 0.00in /  0mm 47 W/m2
06:44 69 °F /  20.6 °C 62.2 °F /  16.8 °C 29.71in /  1006hPa Calm   1mph /  1.6km/h 79% 0.00in /  0mm 65 W/m2
06:49 69 °F /  20.6 °C 62.2 °F /  16.8 °C 29.71in /  1006hPa Calm   1mph /  1.6km/h 79% 0.00in /  0mm 69 W/m2
06:54 69.1 °F /  20.6 °C 62.7 °F /  17.1 °C 29.71in /  1006hPa Calm   1mph /  1.6km/h 79.9% 0.00in /  0mm 102 W/m2
06:59 69.4 °F /  20.8 °C 62.9 °F /  17.2 °C 29.71in /  1006hPa Calm   1mph /  1.6km/h 80% 0.00in /  0mm 130 W/m2
07:04 69.8 °F /  21 °C 63.3 °F /  17.4 °C 29.72in /  1006.3hPa SW 0.1mph /  0.2km/h 3mph /  4.8km/h 79.9% 0.00in /  0mm 134 W/m2
07:09 70.4 °F /  21.3 °C 63.5 °F /  17.5 °C 29.72in /  1006.3hPa SW 0.1mph /  0.2km/h 3mph /  4.8km/h 78.7% 0.00in /  0mm 123 W/m2
07:14 70.9 °F /  21.6 °C 63.3 °F /  17.4 °C 29.72in /  1006.3hPa Calm   3mph /  4.8km/h 77.1% 0.00in /  0mm 90 W/m2
07:19 71.2 °F /  21.8 °C 63.6 °F /  17.6 °C 29.72in /  1006.3hPa SW 0.1mph /  0.2km/h 3mph /  4.8km/h 77% 0.00in /  0mm 90 W/m2
07:24 71.7 °F /  22.1 °C 64.1 °F /  17.8 °C 29.72in /  1006.3hPa SW 0.2mph /  0.3km/h 5mph /  8km/h 77% 0.00in /  0mm 199 W/m2
07:29 72.2 °F /  22.3 °C 64.2 °F /  17.9 °C 29.72in /  1006.3hPa SW 0.3mph /  0.5km/h 5mph /  8km/h 75.9% 0.00in /  0mm 283 W/m2
07:30 72.4 °F /  22.4 °C 64 °F /  17.8 °C 29.72in /  1006.3hPa Calm   5mph /  8km/h 75% 0.00in /  0mm 283 W/m2
08:09 75.2 °F /  24 °C 65.1 °F /  18.4 °C 29.71in /  1006hPa SW 0.1mph /  0.2km/h 2mph /  3.2km/h 70.8% 0.00in /  0mm 422 W/m2
08:14 75.5 °F /  24.2 °C 65.3 °F /  18.5 °C 29.71in /  1006hPa Calm   2mph /  3.2km/h 70.8% 0.00in /  0mm 443 W/m2
08:19 75.7 °F /  24.3 °C 65.7 °F /  18.7 °C 29.71in /  1006hPa Calm   2mph /  3.2km/h 71% 0.00in /  0mm 468 W/m2
08:24 76.1 °F /  24.5 °C 66 °F /  18.9 °C 29.72in /  1006.3hPa SW 0.1mph /  0.2km/h 2mph /  3.2km/h 70.8% 0.00in /  0mm 455 W/m2
08:29 76.5 °F /  24.7 °C 66.3 °F /  19.1 °C 29.72in /  1006.3hPa SW 1mph /  1.6km/h 7mph /  11.3km/h 70.9% 0.00in /  0mm 445 W/m2
08:34 76.7 °F /  24.8 °C 66.5 °F /  19.2 °C 29.72in /  1006.3hPa WSW 0.5mph /  0.8km/h 7mph /  11.3km/h 70.7% 0.00in /  0mm 462 W/m2
08:39 77.1 °F /  25.1 °C 67 °F /  19.4 °C 29.72in /  1006.3hPa WSW 0.2mph /  0.3km/h 6mph /  9.7km/h 71% 0.00in /  0mm 501 W/m2
08:44 77.6 °F /  25.3 °C 67.4 °F /  19.7 °C 29.72in /  1006.3hPa WSW 0.7mph /  1.1km/h 6mph /  9.7km/h 70.8% 0.00in /  0mm 541 W/m2
08:49 77.9 °F /  25.5 °C 67.1 °F /  19.5 °C 29.71in /  1006hPa WSW 0.1mph /  0.2km/h 6mph /  9.7km/h 69.3% 0.00in /  0mm 529 W/m2
08:54 78.2 °F /  25.7 °C 67.3 °F /  19.6 °C 29.71in /  1006hPa WSW 0.4mph /  0.6km/h 6mph /  9.7km/h 69.3% 0.00in /  0mm 571 W/m2
08:59 78.5 °F /  25.8 °C 67.6 °F /  19.8 °C 29.71in /  1006hPa WSW 0.1mph /  0.2km/h 6mph /  9.7km/h 69.4% 0.00in /  0mm 599 W/m2
09:04 79 °F /  26.1 °C 68.1 °F /  20.1 °C 29.71in /  1006hPa Calm   6mph /  9.7km/h 69.2% 0.00in /  0mm 629 W/m2
09:09 79.7 °F /  26.5 °C 68 °F /  20 °C 29.71in /  1006hPa WSW 0.1mph /  0.2km/h 3mph /  4.8km/h 67.5% 0.00in /  0mm 636 W/m2
09:14 80.2 °F /  26.8 °C 68 °F /  20 °C 29.71in /  1006hPa Calm   3mph /  4.8km/h 66.5% 0.00in /  0mm 657 W/m2
09:19 80.7 °F /  27.1 °C 68.9 °F /  20.5 °C 29.71in /  1006hPa WSW 0.7mph /  1.1km/h 5mph /  8km/h 67.4% 0.00in /  0mm 694 W/m2
09:24 81.1 °F /  27.3 °C 68.4 °F /  20.2 °C 29.71in /  1006hPa WSW 0.3mph /  0.5km/h 5mph /  8km/h 65.4% 0.00in /  0mm 635 W/m2
09:29 81.4 °F /  27.4 °C 68.7 °F /  20.4 °C 29.71in /  1006hPa WSW 0.4mph /  0.6km/h 6mph /  9.7km/h 65.4% 0.00in /  0mm 684 W/m2
09:34 81.7 °F /  27.6 °C 68.8 °F /  20.4 °C 29.71in /  1006hPa WSW 0.1mph /  0.2km/h 6mph /  9.7km/h 65% 0.00in /  0mm 666 W/m2
09:39 81.9 °F /  27.7 °C 68.5 °F /  20.3 °C 29.71in /  1006hPa Calm   3mph /  4.8km/h 63.9% 0.00in /  0mm 670 W/m2
09:44 82.1 °F /  27.8 °C 69 °F /  20.6 °C 29.70in /  1005.6hPa Calm   3mph /  4.8km/h 64.6% 0.00in /  0mm 700 W/m2
09:49 82.4 °F /  28 °C 68.9 °F /  20.5 °C 29.70in /  1005.6hPa WSW 0.4mph /  0.6km/h 10mph /  16.1km/h 63.7% 0.00in /  0mm 786 W/m2
09:54 82.7 °F /  28.2 °C 68.8 °F /  20.4 °C 29.70in /  1005.6hPa WSW 0.4mph /  0.6km/h 10mph /  16.1km/h 63% 0.00in /  0mm 795 W/m2
09:59 82.9 °F /  28.3 °C 69 °F /  20.6 °C 29.70in /  1005.6hPa WSW 0.7mph /  1.1km/h 10mph /  16.1km/h 63.1% 0.00in /  0mm 772 W/m2
10:04 83.4 °F /  28.6 °C 69.6 °F /  20.9 °C 29.70in /  1005.6hPa WSW 0.6mph /  1km/h 10mph /  16.1km/h 63.3% 0.00in /  0mm 816 W/m2
10:09 83.9 °F /  28.8 °C 69.5 °F /  20.8 °C 29.71in /  1006hPa WSW 0.2mph /  0.3km/h 6mph /  9.7km/h 62% 0.00in /  0mm 816 W/m2
10:14 84.2 °F /  29 °C 69.7 °F /  20.9 °C 29.71in /  1006hPa WSW 0.9mph /  1.4km/h 7mph /  11.3km/h 61.9% 0.00in /  0mm 694 W/m2
10:19 84.3 °F /  29.1 °C 69.9 °F /  21.1 °C 29.70in /  1005.6hPa WSW 1mph /  1.6km/h 7mph /  11.3km/h 62% 0.00in /  0mm 724 W/m2
10:24 84.6 °F /  29.2 °C 70.1 °F /  21.2 °C 29.70in /  1005.6hPa WSW 1.1mph /  1.8km/h 7mph /  11.3km/h 61.8% 0.00in /  0mm 793 W/m2
10:29 84.9 °F /  29.4 °C 69.9 °F /  21.1 °C 29.70in /  1005.6hPa WSW 0.1mph /  0.2km/h 7mph /  11.3km/h 61% 0.00in /  0mm 814 W/m2
10:34 85.1 °F /  29.5 °C 70.2 °F /  21.2 °C 29.70in /  1005.6hPa WSW 0.8mph /  1.3km/h 7mph /  11.3km/h 61.1% 0.00in /  0mm 814 W/m2
10:39 85.4 °F /  29.7 °C 70.4 °F /  21.3 °C 29.70in /  1005.6hPa WSW 0.7mph /  1.1km/h 6mph /  9.7km/h 61% 0.00in /  0mm 828 W/m2
10:44 85.6 °F /  29.8 °C 70.1 °F /  21.2 °C 29.70in /  1005.6hPa WSW 0.6mph /  1km/h 6mph /  9.7km/h 60% 0.00in /  0mm 837 W/m2
10:49 85.9 °F /  29.9 °C 70.5 °F /  21.4 °C 29.70in /  1005.6hPa WSW 0.6mph /  1km/h 6mph /  9.7km/h 60.3% 0.00in /  0mm 849 W/m2
10:54 86.3 °F /  30.2 °C 71.2 °F /  21.8 °C 29.70in /  1005.6hPa WSW 0.1mph /  0.2km/h 6mph /  9.7km/h 60.9% 0.00in /  0mm 861 W/m2
10:59 86.8 °F /  30.4 °C 70 °F /  21.1 °C 29.69in /  1005.3hPa WSW 1.1mph /  1.8km/h 6mph /  9.7km/h 57.5% 0.00in /  0mm 868 W/m2
11:03 86.9 °F /  30.5 °C 70.5 °F /  21.4 °C 29.69in /  1005.3hPa WSW 0.2mph /  0.3km/h 6mph /  9.7km/h 58.4% 0.00in /  0mm 856 W/m2
11:30 89.2 °F /  31.8 °C 70.9 °F /  21.6 °C 29.69in /  1005.3hPa WSW 1mph /  1.6km/h 5mph /  8km/h 55% 0.00in /  0mm 846 W/m2
12:09 90.1 °F /  32.3 °C 71.2 °F /  21.8 °C 29.69in /  1005.3hPa West 2mph /  3.2km/h 7mph /  11.3km/h 53.8% 0.00in /  0mm 1051 W/m2
12:14 90.2 °F /  32.3 °C 71 °F /  21.7 °C 29.68in /  1005hPa WNW 0.6mph /  1km/h 7mph /  11.3km/h 53.5% 0.00in /  0mm 1051 W/m2
12:19 90.2 °F /  32.3 °C 71 °F /  21.7 °C 29.68in /  1005hPa West 2.7mph /  4.3km/h 8mph /  12.9km/h 53.4% 0.00in /  0mm 1065 W/m2
12:24 90.1 °F /  32.3 °C 71.3 °F /  21.8 °C 29.68in /  1005hPa West 0.9mph /  1.4km/h 8mph /  12.9km/h 54.2% 0.00in /  0mm 1044 W/m2
12:29 89.9 °F /  32.2 °C 70.9 °F /  21.6 °C 29.69in /  1005.3hPa West 1.3mph /  2.1km/h 8mph /  12.9km/h 53.8% 0.00in /  0mm 1021 W/m2
12:34 89.8 °F /  32.1 °C 70.4 °F /  21.3 °C 29.69in /  1005.3hPa West 0.6mph /  1km/h 8mph /  12.9km/h 53% 0.00in /  0mm 970 W/m2
12:39 89.6 °F /  32 °C 70.6 °F /  21.4 °C 29.69in /  1005.3hPa West 0.5mph /  0.8km/h 4mph /  6.4km/h 53.7% 0.00in /  0mm 970 W/m2
12:44 89.3 °F /  31.8 °C 69.5 °F /  20.8 °C 29.69in /  1005.3hPa WSW 3.4mph /  5.5km/h 13mph /  20.9km/h 52.2% 0.00in /  0mm 1074 W/m2
12:49 88.9 °F /  31.6 °C 69.7 °F /  20.9 °C 29.69in /  1005.3hPa West 1.9mph /  3.1km/h 13mph /  20.9km/h 53.4% 0.00in /  0mm 1041 W/m2
12:54 89 °F /  31.7 °C 70.3 °F /  21.3 °C 29.69in /  1005.3hPa West 1.2mph /  1.9km/h 13mph /  20.9km/h 54.2% 0.00in /  0mm 963 W/m2
12:59 89.3 °F /  31.8 °C 71.1 °F /  21.7 °C 29.69in /  1005.3hPa West 0.4mph /  0.6km/h 13mph /  20.9km/h 55.1% 0.00in /  0mm 606 W/m2
13:04 89.5 °F /  31.9 °C 70.5 °F /  21.4 °C 29.69in /  1005.3hPa West 1.2mph /  1.9km/h 13mph /  20.9km/h 53.7% 0.00in /  0mm 575 W/m2
13:09 89.3 °F /  31.8 °C 69.5 °F /  20.8 °C 29.69in /  1005.3hPa WNW 2.8mph /  4.5km/h 9mph /  14.5km/h 52.2% 0.00in /  0mm 299 W/m2
13:14 89 °F /  31.7 °C 70.5 °F /  21.4 °C 29.69in /  1005.3hPa Calm   9mph /  14.5km/h 54.4% 0.00in /  0mm 744 W/m2
13:19 89 °F /  31.7 °C 71.1 °F /  21.7 °C 29.69in /  1005.3hPa West 1.2mph /  1.9km/h 9mph /  14.5km/h 55.7% 0.00in /  0mm 1002 W/m2
13:24 89.1 °F /  31.7 °C 70.4 °F /  21.3 °C 29.68in /  1005hPa WSW 1.1mph /  1.8km/h 9mph /  14.5km/h 54.1% 0.00in /  0mm 1002 W/m2
13:29 89.4 °F /  31.9 °C 70.7 °F /  21.5 °C 29.68in /  1005hPa West 1.4mph /  2.3km/h 9mph /  14.5km/h 54.1% 0.00in /  0mm 1034 W/m2
13:34 89.9 °F /  32.2 °C 70.9 °F /  21.6 °C 29.69in /  1005.3hPa WSW 1.1mph /  1.8km/h 9mph /  14.5km/h 53.7% 0.00in /  0mm 1039 W/m2
13:39 90.3 °F /  32.4 °C 70.5 °F /  21.4 °C 29.68in /  1005hPa WSW 0.1mph /  0.2km/h 6mph /  9.7km/h 52.4% 0.00in /  0mm 1039 W/m2
13:44 90.5 °F /  32.5 °C 69.5 °F /  20.8 °C 29.68in /  1005hPa WNW 1.9mph /  3.1km/h 6mph /  9.7km/h 50.3% 0.00in /  0mm 1041 W/m2
13:49 90.4 °F /  32.4 °C 69.3 °F /  20.7 °C 29.68in /  1005hPa West 2.2mph /  3.5km/h 8mph /  12.9km/h 50% 0.00in /  0mm 1041 W/m2
13:54 90.5 °F /  32.5 °C 69.9 °F /  21.1 °C 29.68in /  1005hPa WNW 1.2mph /  1.9km/h 8mph /  12.9km/h 50.9% 0.00in /  0mm 1028 W/m2
13:59 90.3 °F /  32.4 °C 68.9 °F /  20.5 °C 29.68in /  1005hPa West 1.1mph /  1.8km/h 8mph /  12.9km/h 49.6% 0.00in /  0mm 241 W/m2
14:04 90 °F /  32.2 °C 68.7 °F /  20.4 °C 29.68in /  1005hPa West 0.7mph /  1.1km/h 8mph /  12.9km/h 49.7% 0.00in /  0mm 933 W/m2
14:09 89.9 °F /  32.2 °C 69.2 °F /  20.7 °C 29.68in /  1005hPa WSW 1.4mph /  2.3km/h 7mph /  11.3km/h 50.8% 0.00in /  0mm 933 W/m2
14:14 89.8 °F /  32.1 °C 68.7 °F /  20.4 °C 29.68in /  1005hPa West 1.1mph /  1.8km/h 7mph /  11.3km/h 50% 0.00in /  0mm 207 W/m2
14:19 89.8 °F /  32.1 °C 68.5 °F /  20.3 °C 29.68in /  1005hPa WSW 3mph /  4.8km/h 7mph /  11.3km/h 49.7% 0.00in /  0mm 867 W/m2
14:24 90 °F /  32.2 °C 68.6 °F /  20.3 °C 29.68in /  1005hPa SW 1.5mph /  2.4km/h 7mph /  11.3km/h 49.5% 0.00in /  0mm 867 W/m2
14:29 90.2 °F /  32.3 °C 68.5 °F /  20.3 °C 29.68in /  1005hPa West 2.3mph /  3.7km/h 9mph /  14.5km/h 49.1% 0.00in /  0mm 842 W/m2
14:34 90.4 °F /  32.4 °C 68.8 °F /  20.4 °C 29.68in /  1005hPa West 0.9mph /  1.4km/h 9mph /  14.5km/h 49.3% 0.00in /  0mm 719 W/m2
14:39 90.3 °F /  32.4 °C 68.2 °F /  20.1 °C 29.68in /  1005hPa WNW 2.4mph /  3.9km/h 7mph /  11.3km/h 48.4% 0.00in /  0mm 209 W/m2
14:44 90 °F /  32.2 °C 68.7 °F /  20.4 °C 29.68in /  1005hPa West 2.8mph /  4.5km/h 7mph /  11.3km/h 49.6% 0.00in /  0mm 775 W/m2
14:49 89.9 °F /  32.2 °C 67.8 °F /  19.9 °C 29.67in /  1004.6hPa WSW 3.1mph /  5km/h 8mph /  12.9km/h 48.3% 0.00in /  0mm 775 W/m2
14:54 89.9 °F /  32.2 °C 67.2 °F /  19.6 °C 29.67in /  1004.6hPa WNW 2.4mph /  3.9km/h 9mph /  14.5km/h 47.4% 0.00in /  0mm 364 W/m2
14:59 89.7 °F /  32.1 °C 67.7 °F /  19.8 °C 29.68in /  1005hPa WNW 1.3mph /  2.1km/h 9mph /  14.5km/h 48.5% 0.00in /  0mm 399 W/m2
15:04 89.5 °F /  31.9 °C 68.3 °F /  20.2 °C 29.67in /  1004.6hPa West 2.7mph /  4.3km/h 9mph /  14.5km/h 49.8% 0.00in /  0mm 399 W/m2
15:09 89.4 °F /  31.9 °C 67.9 °F /  19.9 °C 29.67in /  1004.6hPa West 0.9mph /  1.4km/h 7mph /  11.3km/h 49.3% 0.00in /  0mm 373 W/m2
15:14 89.4 °F /  31.9 °C 68.6 °F /  20.3 °C 29.67in /  1004.6hPa West 2.2mph /  3.5km/h 7mph /  11.3km/h 50.5% 0.00in /  0mm 230 W/m2
15:19 89.2 °F /  31.8 °C 68.7 °F /  20.4 °C 29.67in /  1004.6hPa West 1.2mph /  1.9km/h 7mph /  11.3km/h 51% 0.00in /  0mm 213 W/m2
15:24 89 °F /  31.7 °C 68.7 °F /  20.4 °C 29.67in /  1004.6hPa West 1.3mph /  2.1km/h 7mph /  11.3km/h 51.3% 0.00in /  0mm 134 W/m2
15:29 88.6 °F /  31.4 °C 68.1 °F /  20.1 °C 29.67in /  1004.6hPa WNW 1.1mph /  1.8km/h 10mph /  16.1km/h 51% 0.00in /  0mm 90 W/m2
15:34 88.1 °F /  31.2 °C 68.4 °F /  20.2 °C 29.67in /  1004.6hPa WNW 0.3mph /  0.5km/h 10mph /  16.1km/h 52.2% 0.00in /  0mm 97 W/m2
15:39 87.6 °F /  30.9 °C 67.7 °F /  19.8 °C 29.67in /  1004.6hPa WNW 2.3mph /  3.7km/h 6mph /  9.7km/h 51.7% 0.00in /  0mm 95 W/m2
15:44 87.1 °F /  30.6 °C 66.9 °F /  19.4 °C 29.67in /  1004.6hPa NW 1.6mph /  2.6km/h 9mph /  14.5km/h 51.2% 0.00in /  0mm 67 W/m2
15:49 86.5 °F /  30.3 °C 67.3 °F /  19.6 °C 29.67in /  1004.6hPa NW 1.7mph /  2.7km/h 9mph /  14.5km/h 52.8% 0.00in /  0mm 44 W/m2
15:54 86 °F /  30 °C 67.9 °F /  19.9 °C 29.67in /  1004.6hPa WNW 2.3mph /  3.7km/h 9mph /  14.5km/h 54.9% 0.00in /  0mm 53 W/m2
15:59 85.3 °F /  29.6 °C 68.7 °F /  20.4 °C 29.67in /  1004.6hPa NW 2.4mph /  3.9km/h 10mph /  16.1km/h 57.7% 0.00in /  0mm 83 W/m2
16:00 84.9 °F /  29.4 °C 69 °F /  20.6 °C 29.67in /  1004.6hPa Calm   10mph /  16.1km/h 59% 0.00in /  0mm 83 W/m2
16:09 84 °F /  28.9 °C 70.4 °F /  21.3 °C 29.68in /  1005hPa NW 2mph /  3.2km/h 6mph /  9.7km/h 63.7% 0.03in /  0.76mm 95 W/m2
16:14 83.3 °F /  28.5 °C 72.2 °F /  22.3 °C 29.69in /  1005.3hPa NW 1.4mph /  2.3km/h 6mph /  9.7km/h 69.1% 0.10in /  2.54mm 39 W/m2
16:19 82.1 °F /  27.8 °C 72.1 °F /  22.3 °C 29.69in /  1005.3hPa WNW 0.2mph /  0.3km/h 6mph /  9.7km/h 72% 0.28in /  7.11mm 44 W/m2
16:24 80.4 °F /  26.9 °C 71.3 °F /  21.8 °C 29.68in /  1005hPa WNW 0.1mph /  0.2km/h 6mph /  9.7km/h 73.8% 0.35in /  8.89mm 39 W/m2
16:29 78.6 °F /  25.9 °C 70.1 °F /  21.2 °C 29.67in /  1004.6hPa Calm   6mph /  9.7km/h 75.1% 0.37in /  9.4mm 39 W/m2
16:34 77 °F /  25 °C 69.5 °F /  20.8 °C 29.67in /  1004.6hPa WNW 0.2mph /  0.3km/h 6mph /  9.7km/h 77.8% 0.38in /  9.65mm 51 W/m2
16:39 75.9 °F /  24.4 °C 69.5 °F /  20.8 °C 29.66in /  1004.3hPa WNW 0.1mph /  0.2km/h 3mph /  4.8km/h 80.5% 0.38in /  9.65mm 121 W/m2
16:44 75 °F /  23.9 °C 69.2 °F /  20.7 °C 29.66in /  1004.3hPa Calm   3mph /  4.8km/h 82.1% 0.38in /  9.65mm 135 W/m2
16:49 74.8 °F /  23.8 °C 70.3 °F /  21.3 °C 29.66in /  1004.3hPa Calm   3mph /  4.8km/h 86.1% 0.38in /  9.65mm 125 W/m2
16:54 74.6 °F /  23.7 °C 70 °F /  21.1 °C 29.67in /  1004.6hPa Calm   3mph /  4.8km/h 85.7% 0.38in /  9.65mm 121 W/m2
16:59 74.5 °F /  23.6 °C 70.4 °F /  21.3 °C 29.67in /  1004.6hPa WNW 0.1mph /  0.2km/h 3mph /  4.8km/h 87.2% 0.38in /  9.65mm 128 W/m2
17:04 74.6 °F /  23.7 °C 70.8 °F /  21.6 °C 29.67in /  1004.6hPa Calm   3mph /  4.8km/h 88% 0.38in /  9.65mm 120 W/m2
17:09 74.6 °F /  23.7 °C 71 °F /  21.7 °C 29.67in /  1004.6hPa Calm     88.5% 0.01in /  0.25mm 98 W/m2
17:14 74.7 °F /  23.7 °C 71.3 °F /  21.8 °C 29.66in /  1004.3hPa Calm     89% 0.01in /  0.25mm 109 W/m2
17:19 75 °F /  23.9 °C 71.8 °F /  22.1 °C 29.66in /  1004.3hPa Calm     90% 0.01in /  0.25mm 121 W/m2
17:24 75.1 °F /  23.9 °C 72 °F /  22.2 °C 29.66in /  1004.3hPa Calm     90% 0.01in /  0.25mm 135 W/m2
17:29 75.3 °F /  24.1 °C 72.1 °F /  22.3 °C 29.66in /  1004.3hPa Calm     90% 0.01in /  0.25mm 137 W/m2
17:34 75.4 °F /  24.1 °C 72.1 °F /  22.3 °C 29.66in /  1004.3hPa Calm     89.5% 0.01in /  0.25mm 123 W/m2
17:39 75.5 °F /  24.2 °C 72.4 °F /  22.4 °C 29.66in /  1004.3hPa Calm     90% 0.01in /  0.25mm 116 W/m2
17:44 75.7 °F /  24.3 °C 72.6 °F /  22.6 °C 29.66in /  1004.3hPa Calm     90% 0.01in /  0.25mm 98 W/m2
17:48 75.9 °F /  24.4 °C 72.8 °F /  22.7 °C 29.65in /  1003.9hPa Calm     90% 0.01in /  0.25mm 90 W/m2
17:54 76.2 °F /  24.6 °C 73.1 °F /  22.8 °C 29.66in /  1004.3hPa Calm     90% 0.01in /  0.25mm 111 W/m2
17:59 76.4 °F /  24.7 °C 73.3 °F /  22.9 °C 29.66in /  1004.3hPa Calm     90% 0.01in /  0.25mm 104 W/m2
18:04 76.6 °F /  24.8 °C 73.4 °F /  23 °C 29.65in /  1003.9hPa Calm     90% 0.01in /  0.25mm 81 W/m2
18:09 76.7 °F /  24.8 °C 73.5 °F /  23.1 °C 29.65in /  1003.9hPa Calm     90% 0.00in /  0mm 67 W/m2
18:14 76.8 °F /  24.9 °C 73.6 °F /  23.1 °C 29.65in /  1003.9hPa Calm     90% 0.00in /  0mm 70 W/m2
18:19 76.9 °F /  24.9 °C 73.7 °F /  23.2 °C 29.65in /  1003.9hPa Calm     90% 0.00in /  0mm 86 W/m2
18:24 76.9 °F /  24.9 °C 73.8 °F /  23.2 °C 29.66in /  1004.3hPa Calm     90% 0.00in /  0mm 91 W/m2
18:29 77.1 °F /  25.1 °C 74 °F /  23.3 °C 29.66in /  1004.3hPa Calm     90.1% 0.00in /  0mm 84 W/m2
18:34 77.3 °F /  25.2 °C 74.5 °F /  23.6 °C 29.66in /  1004.3hPa Calm     91% 0.00in /  0mm 42 W/m2
18:39 77.5 °F /  25.3 °C 74.6 °F /  23.7 °C 29.66in /  1004.3hPa Calm     91% 0.00in /  0mm 32 W/m2
18:44 77.5 °F /  25.3 °C 74.4 °F /  23.6 °C 29.67in /  1004.6hPa Calm     90.3% 0.00in /  0mm 23 W/m2
18:49 77.4 °F /  25.2 °C 74.2 °F /  23.4 °C 29.67in /  1004.6hPa Calm   1mph /  1.6km/h 90% 0.00in /  0mm 23 W/m2
18:54 77.4 °F /  25.2 °C 74.2 °F /  23.4 °C 29.67in /  1004.6hPa Calm   1mph /  1.6km/h 90% 0.00in /  0mm 18 W/m2
18:59 77.4 °F /  25.2 °C 74.2 °F /  23.4 °C 29.67in /  1004.6hPa Calm   1mph /  1.6km/h 90% 0.00in /  0mm 25 W/m2
19:04 77.4 °F /  25.2 °C 74.2 °F /  23.4 °C 29.67in /  1004.6hPa Calm   1mph /  1.6km/h 90% 0.00in /  0mm 28 W/m2
19:09 77.4 °F /  25.2 °C 74.2 °F /  23.4 °C 29.67in /  1004.6hPa Calm     90% 0.00in /  0mm 30 W/m2
19:14 77.4 °F /  25.2 °C 74.5 °F /  23.6 °C 29.68in /  1005hPa Calm     90.8% 0.00in /  0mm 28 W/m2
19:19 77.4 °F /  25.2 °C 74.6 °F /  23.7 °C 29.68in /  1005hPa Calm     91% 0.00in /  0mm 26 W/m2
19:24 77.5 °F /  25.3 °C 74.7 °F /  23.7 °C 29.68in /  1005hPa Calm     91% 0.00in /  0mm 21 W/m2
19:29 77.6 °F /  25.3 °C 74.8 °F /  23.8 °C 29.68in /  1005hPa Calm     91% 0.00in /  0mm 18 W/m2
19:34 77.6 °F /  25.3 °C 74.8 °F /  23.8 °C 29.68in /  1005hPa Calm     91% 0.00in /  0mm 12 W/m2
19:39 77.6 °F /  25.3 °C 74.8 °F /  23.8 °C 29.68in /  1005hPa Calm     91% 0.00in /  0mm 5 W/m2
19:44 77.6 °F /  25.3 °C 74.8 °F /  23.8 °C 29.68in /  1005hPa Calm     91% 0.00in /  0mm 14 W/m2
19:49 77.5 °F /  25.3 °C 74.7 °F /  23.7 °C 29.68in /  1005hPa Calm     91% 0.00in /  0mm 16 W/m2
19:54 77.5 °F /  25.3 °C 74.7 °F /  23.7 °C 29.68in /  1005hPa Calm     91% 0.00in /  0mm 9 W/m2
19:59 77.4 °F /  25.2 °C 74.6 °F /  23.7 °C 29.68in /  1005hPa Calm     91% 0.00in /  0mm 5 W/m2
20:00 77.3 °F /  25.2 °C 74.5 °F /  23.6 °C 29.67in /  1004.6hPa Calm     91% 0.00in /  0mm 0 W/m2
20:09 77.2 °F /  25.1 °C 74.4 °F /  23.6 °C 29.68in /  1005hPa Calm     91% 0.00in /  0mm 0 W/m2
20:14 77.2 °F /  25.1 °C 74.5 °F /  23.6 °C 29.68in /  1005hPa Calm     91.5% 0.01in /  0.25mm 0 W/m2
20:19 77 °F /  25 °C 74.2 °F /  23.4 °C 29.68in /  1005hPa Calm     91% 0.01in /  0.25mm 0 W/m2
20:24 76.8 °F /  24.9 °C 74 °F /  23.3 °C 29.69in /  1005.3hPa Calm     91% 0.01in /  0.25mm 0 W/m2
20:28 76.7 °F /  24.8 °C 73.8 °F /  23.2 °C 29.70in /  1005.6hPa Calm     91% 0.01in /  0.25mm 0 W/m2
20:34 76.5 °F /  24.7 °C 73.7 °F /  23.2 °C 29.71in /  1006hPa Calm     91% 0.01in /  0.25mm 0 W/m2
20:39 76.4 °F /  24.7 °C 73.8 °F /  23.2 °C 29.71in /  1006hPa NW 2mph /  3.2km/h 13mph /  20.9km/h 91.7% 0.03in /  0.76mm 0 W/m2
20:44 75.2 °F /  24 °C 70.4 °F /  21.3 °C 29.72in /  1006.3hPa WNW 1.4mph /  2.3km/h 13mph /  20.9km/h 84.9% 0.03in /  0.76mm 0 W/m2
20:49 74.1 °F /  23.4 °C 68.4 °F /  20.2 °C 29.72in /  1006.3hPa SW 0.1mph /  0.2km/h 13mph /  20.9km/h 82.3% 0.04in /  1.02mm 0 W/m2
20:54 73.3 °F /  22.9 °C 67.8 °F /  19.9 °C 29.72in /  1006.3hPa Calm   13mph /  20.9km/h 82.8% 0.07in /  1.78mm 0 W/m2
20:59 72.5 °F /  22.5 °C 66.8 °F /  19.3 °C 29.72in /  1006.3hPa Calm   13mph /  20.9km/h 82.4% 0.07in /  1.78mm 0 W/m2
21:04 71.7 °F /  22.1 °C 66.4 °F /  19.1 °C 29.72in /  1006.3hPa Calm   13mph /  20.9km/h 83.4% 0.07in /  1.78mm 0 W/m2
21:09 71.1 °F /  21.7 °C 66.3 °F /  19.1 °C 29.72in /  1006.3hPa Calm   1mph /  1.6km/h 85% 0.07in /  1.78mm 0 W/m2
21:14 70.3 °F /  21.3 °C 65.6 °F /  18.7 °C 29.73in /  1006.7hPa Calm   1mph /  1.6km/h 85% 0.07in /  1.78mm 0 W/m2
21:19 69.7 °F /  20.9 °C 64.9 °F /  18.3 °C 29.73in /  1006.7hPa Calm   1mph /  1.6km/h 85% 0.07in /  1.78mm 0 W/m2
21:24 69.2 °F /  20.7 °C 64.8 °F /  18.2 °C 29.73in /  1006.7hPa Calm   1mph /  1.6km/h 86% 0.07in /  1.78mm 0 W/m2
21:29 68.7 °F /  20.4 °C 64.5 °F /  18.1 °C 29.74in /  1007hPa SSW 0.1mph /  0.2km/h 2mph /  3.2km/h 86.6% 0.07in /  1.78mm 0 W/m2
21:33 68.4 °F /  20.2 °C 64.4 °F /  18 °C 29.74in /  1007hPa Calm   2mph /  3.2km/h 87.2% 0.07in /  1.78mm 0 W/m2
Hartford County Weather
Compliments of Weather Underground - 2 mb